Jardinopolis, Brazil
Current Conditions -  °F | °C
As of 3:00 PM on Monday 22 Dec 2014 (Local Time) from SBCH Reporting Station
Scattered Clouds Scattered Clouds  
Wind Chill: 79°   Ceiling: Unl
Heat Index: 81°   Visibility: 6mi
Dew Point: 66°   Wind: 18mph
Humidity: 65%   Direction: 180°S
Pressure: 29.94"   Gusts: NA
Location:  26.72°S, 52.86°W
Report Text: SBCH 221700Z 18016KT 9999 SCT030 26/19 Q1014
Loading
Personal Weather Stations






























Interactive Weather Map New forecast layout! Learn more

10-Day Weather Forecast

Advertisements
Track Severe Weather on mobile